sensor_id;sensor_type;location;lat;lon;timestamp;temperature;humidity
19258;DHT22;9763;48.780;9.212;2022-11-15T00:02:40;11.70;93.10
19258;DHT22;9763;48.780;9.212;2022-11-15T00:06:22;11.80;93.20
19258;DHT22;9763;48.780;9.212;2022-11-15T00:10:05;11.80;93.10
19258;DHT22;9763;48.780;9.212;2022-11-15T00:13:49;11.80;92.80
19258;DHT22;9763;48.780;9.212;2022-11-15T00:17:31;11.90;92.80
19258;DHT22;9763;48.780;9.212;2022-11-15T00:21:14;11.90;92.70
19258;DHT22;9763;48.780;9.212;2022-11-15T00:24:56;12.00;92.70
19258;DHT22;9763;48.780;9.212;2022-11-15T00:28:39;12.00;92.50
19258;DHT22;9763;48.780;9.212;2022-11-15T00:32:22;12.00;92.50
19258;DHT22;9763;48.780;9.212;2022-11-15T00:36:07;12.00;92.30
19258;DHT22;9763;48.780;9.212;2022-11-15T00:39:51;12.00;92.20
19258;DHT22;9763;48.780;9.212;2022-11-15T00:43:33;12.00;92.10
19258;DHT22;9763;48.780;9.212;2022-11-15T00:47:15;12.00;91.80
19258;DHT22;9763;48.780;9.212;2022-11-15T00:50:59;12.00;91.50
19258;DHT22;9763;48.780;9.212;2022-11-15T00:54:41;12.00;91.10
19258;DHT22;9763;48.780;9.212;2022-11-15T00:58:23;12.00;91.20
19258;DHT22;9763;48.780;9.212;2022-11-15T01:02:05;11.90;90.60
19258;DHT22;9763;48.780;9.212;2022-11-15T01:05:48;11.90;90.50
19258;DHT22;9763;48.780;9.212;2022-11-15T01:09:35;11.80;90.30
19258;DHT22;9763;48.780;9.212;2022-11-15T01:13:17;11.70;90.10
19258;DHT22;9763;48.780;9.212;2022-11-15T01:16:59;11.70;90.20
19258;DHT22;9763;48.780;9.212;2022-11-15T01:20:41;11.60;90.10
19258;DHT22;9763;48.780;9.212;2022-11-15T01:24:23;11.50;90.10
19258;DHT22;9763;48.780;9.212;2022-11-15T01:28:07;11.50;89.80
19258;DHT22;9763;48.780;9.212;2022-11-15T01:31:49;11.80;89.40
19258;DHT22;9763;48.780;9.212;2022-11-15T01:35:31;11.40;88.50
19258;DHT22;9763;48.780;9.212;2022-11-15T01:39:14;11.30;88.10
19258;DHT22;9763;48.780;9.212;2022-11-15T01:42:57;11.30;87.80
19258;DHT22;9763;48.780;9.212;2022-11-15T01:46:45;11.20;87.60
19258;DHT22;9763;48.780;9.212;2022-11-15T01:50:31;11.10;87.90
19258;DHT22;9763;48.780;9.212;2022-11-15T01:54:16;11.10;88.50
19258;DHT22;9763;48.780;9.212;2022-11-15T01:58:04;11.00;88.70
19258;DHT22;9763;48.780;9.212;2022-11-15T02:01:49;11.00;89.20
19258;DHT22;9763;48.780;9.212;2022-11-15T02:05:32;11.00;90.10
19258;DHT22;9763;48.780;9.212;2022-11-15T02:09:17;11.00;90.60
19258;DHT22;9763;48.780;9.212;2022-11-15T02:13:00;11.00;91.20
19258;DHT22;9763;48.780;9.212;2022-11-15T02:16:51;11.00;91.60
19258;DHT22;9763;48.780;9.212;2022-11-15T02:20:44;11.10;91.70
19258;DHT22;9763;48.780;9.212;2022-11-15T02:24:49;11.20;91.90
19258;DHT22;9763;48.780;9.212;2022-11-15T02:28:51;11.20;91.80
19258;DHT22;9763;48.780;9.212;2022-11-15T02:32:44;11.30;91.40
19258;DHT22;9763;48.780;9.212;2022-11-15T02:36:40;11.30;91.00
19258;DHT22;9763;48.780;9.212;2022-11-15T02:40:35;11.30;90.60
19258;DHT22;9763;48.780;9.212;2022-11-15T02:44:25;11.30;90.20
19258;DHT22;9763;48.780;9.212;2022-11-15T02:48:15;11.20;90.00
19258;DHT22;9763;48.780;9.212;2022-11-15T02:51:59;11.10;89.50
19258;DHT22;9763;48.780;9.212;2022-11-15T02:55:44;11.10;89.40
19258;DHT22;9763;48.780;9.212;2022-11-15T03:00:03;11.10;89.20
19258;DHT22;9763;48.780;9.212;2022-11-15T03:03:57;11.00;88.90
19258;DHT22;9763;48.780;9.212;2022-11-15T03:07:52;11.00;90.00
19258;DHT22;9763;48.780;9.212;2022-11-15T03:11:46;11.00;89.80
19258;DHT22;9763;48.780;9.212;2022-11-15T03:15:38;10.90;89.90
19258;DHT22;9763;48.780;9.212;2022-11-15T03:19:31;10.90;89.70
19258;DHT22;9763;48.780;9.212;2022-11-15T03:23:17;10.90;89.00
19258;DHT22;9763;48.780;9.212;2022-11-15T03:27:00;10.90;89.00
19258;DHT22;9763;48.780;9.212;2022-11-15T03:30:46;10.80;88.70
19258;DHT22;9763;48.780;9.212;2022-11-15T03:34:36;10.70;88.70
19258;DHT22;9763;48.780;9.212;2022-11-15T03:38:24;10.70;88.80
19258;DHT22;9763;48.780;9.212;2022-11-15T03:42:17;10.70;88.80
19258;DHT22;9763;48.780;9.212;2022-11-15T03:46:07;10.60;89.00
19258;DHT22;9763;48.780;9.212;2022-11-15T03:49:59;10.60;89.80
19258;DHT22;9763;48.780;9.212;2022-11-15T03:53:45;10.60;90.00
19258;DHT22;9763;48.780;9.212;2022-11-15T03:57:28;10.50;90.20
19258;DHT22;9763;48.780;9.212;2022-11-15T04:01:11;10.50;90.40
19258;DHT22;9763;48.780;9.212;2022-11-15T04:04:53;10.60;90.50
19258;DHT22;9763;48.780;9.212;2022-11-15T04:08:37;10.60;90.60
19258;DHT22;9763;48.780;9.212;2022-11-15T04:12:19;10.60;90.60
19258;DHT22;9763;48.780;9.212;2022-11-15T04:16:11;10.50;90.40
19258;DHT22;9763;48.780;9.212;2022-11-15T04:19:53;10.60;90.20
19258;DHT22;9763;48.780;9.212;2022-11-15T04:23:54;10.60;90.20
19258;DHT22;9763;48.780;9.212;2022-11-15T04:27:54;10.60;90.10
19258;DHT22;9763;48.780;9.212;2022-11-15T04:31:37;10.50;90.00
19258;DHT22;9763;48.780;9.212;2022-11-15T04:35:19;10.50;89.90
19258;DHT22;9763;48.780;9.212;2022-11-15T04:39:03;10.50;89.80
19258;DHT22;9763;48.780;9.212;2022-11-15T04:42:45;10.50;89.80
19258;DHT22;9763;48.780;9.212;2022-11-15T04:46:27;10.50;89.90
19258;DHT22;9763;48.780;9.212;2022-11-15T04:50:10;10.50;90.00
19258;DHT22;9763;48.780;9.212;2022-11-15T04:53:53;10.40;89.80
19258;DHT22;9763;48.780;9.212;2022-11-15T04:57:38;10.40;89.40
19258;DHT22;9763;48.780;9.212;2022-11-15T05:01:20;10.40;89.00
19258;DHT22;9763;48.780;9.212;2022-11-15T05:05:02;10.40;89.00
19258;DHT22;9763;48.780;9.212;2022-11-15T05:08:45;10.40;89.20
19258;DHT22;9763;48.780;9.212;2022-11-15T05:12:27;10.40;89.50
19258;DHT22;9763;48.780;9.212;2022-11-15T05:16:11;10.40;89.80
19258;DHT22;9763;48.780;9.212;2022-11-15T05:19:53;10.40;90.00
19258;DHT22;9763;48.780;9.212;2022-11-15T05:23:35;10.40;90.20
19258;DHT22;9763;48.780;9.212;2022-11-15T05:27:18;10.40;90.00
19258;DHT22;9763;48.780;9.212;2022-11-15T05:31:00;10.30;89.30
19258;DHT22;9763;48.780;9.212;2022-11-15T05:34:45;10.30;89.10
19258;DHT22;9763;48.780;9.212;2022-11-15T05:38:29;10.30;88.70
19258;DHT22;9763;48.780;9.212;2022-11-15T05:42:14;10.20;88.40
19258;DHT22;9763;48.780;9.212;2022-11-15T05:45:57;10.20;88.60
19258;DHT22;9763;48.780;9.212;2022-11-15T05:49:44;10.20;89.10
19258;DHT22;9763;48.780;9.212;2022-11-15T05:53:28;10.20;89.30
19258;DHT22;9763;48.780;9.212;2022-11-15T05:57:12;10.20;89.60
19258;DHT22;9763;48.780;9.212;2022-11-15T06:00:55;10.10;89.40
19258;DHT22;9763;48.780;9.212;2022-11-15T06:04:37;10.10;89.60
19258;DHT22;9763;48.780;9.212;2022-11-15T06:08:20;10.10;89.90
19258;DHT22;9763;48.780;9.212;2022-11-15T06:12:03;10.10;90.00
19258;DHT22;9763;48.780;9.212;2022-11-15T06:15:45;10.10;90.40
19258;DHT22;9763;48.780;9.212;2022-11-15T06:19:27;10.20;90.80
19258;DHT22;9763;48.780;9.212;2022-11-15T06:23:13;10.20;90.90
19258;DHT22;9763;48.780;9.212;2022-11-15T06:26:57;10.30;91.00
19258;DHT22;9763;48.780;9.212;2022-11-15T06:30:39;10.30;90.90
19258;DHT22;9763;48.780;9.212;2022-11-15T06:34:21;10.30;90.80
19258;DHT22;9763;48.780;9.212;2022-11-15T06:38:05;10.30;90.60
19258;DHT22;9763;48.780;9.212;2022-11-15T06:41:48;10.30;90.50
19258;DHT22;9763;48.780;9.212;2022-11-15T06:45:32;10.30;90.50
19258;DHT22;9763;48.780;9.212;2022-11-15T06:49:15;10.30;90.40
19258;DHT22;9763;48.780;9.212;2022-11-15T06:53:01;10.30;90.40
19258;DHT22;9763;48.780;9.212;2022-11-15T06:56:43;10.30;90.60
19258;DHT22;9763;48.780;9.212;2022-11-15T07:00:25;10.50;90.70
19258;DHT22;9763;48.780;9.212;2022-11-15T07:04:09;10.40;90.70
19258;DHT22;9763;48.780;9.212;2022-11-15T07:07:52;10.40;91.00
19258;DHT22;9763;48.780;9.212;2022-11-15T07:11:35;10.40;91.60
19258;DHT22;9763;48.780;9.212;2022-11-15T07:15:18;10.50;91.90
19258;DHT22;9763;48.780;9.212;2022-11-15T07:19:01;10.60;91.60
19258;DHT22;9763;48.780;9.212;2022-11-15T07:22:44;10.60;91.50
19258;DHT22;9763;48.780;9.212;2022-11-15T07:26:27;10.60;91.80
19258;DHT22;9763;48.780;9.212;2022-11-15T07:30:11;10.60;92.30
19258;DHT22;9763;48.780;9.212;2022-11-15T07:33:56;10.70;92.90
19258;DHT22;9763;48.780;9.212;2022-11-15T07:37:38;10.80;93.50
19258;DHT22;9763;48.780;9.212;2022-11-15T07:41:22;10.90;93.90
19258;DHT22;9763;48.780;9.212;2022-11-15T07:45:04;11.10;94.30
19258;DHT22;9763;48.780;9.212;2022-11-15T07:48:47;11.20;94.80
19258;DHT22;9763;48.780;9.212;2022-11-15T07:52:29;11.30;95.20
19258;DHT22;9763;48.780;9.212;2022-11-15T07:56:12;11.50;95.60
19258;DHT22;9763;48.780;9.212;2022-11-15T07:59:56;11.60;96.30
19258;DHT22;9763;48.780;9.212;2022-11-15T08:03:38;11.80;96.70
19258;DHT22;9763;48.780;9.212;2022-11-15T08:07:20;12.00;97.10
19258;DHT22;9763;48.780;9.212;2022-11-15T08:11:03;12.20;96.90
19258;DHT22;9763;48.780;9.212;2022-11-15T08:14:45;12.40;96.50
19258;DHT22;9763;48.780;9.212;2022-11-15T08:18:29;12.60;96.40
19258;DHT22;9763;48.780;9.212;2022-11-15T08:22:11;12.70;96.30
19258;DHT22;9763;48.780;9.212;2022-11-15T08:25:59;12.80;96.50
19258;DHT22;9763;48.780;9.212;2022-11-15T08:29:43;13.10;96.00
19258;DHT22;9763;48.780;9.212;2022-11-15T08:33:28;13.00;95.90
19258;DHT22;9763;48.780;9.212;2022-11-15T08:37:11;13.10;95.10
19258;DHT22;9763;48.780;9.212;2022-11-15T08:41:00;13.10;94.60
19258;DHT22;9763;48.780;9.212;2022-11-15T08:44:43;13.20;93.80
19258;DHT22;9763;48.780;9.212;2022-11-15T08:48:26;13.20;94.20
19258;DHT22;9763;48.780;9.212;2022-11-15T08:52:10;13.20;93.70
19258;DHT22;9763;48.780;9.212;2022-11-15T08:55:52;13.20;93.50
19258;DHT22;9763;48.780;9.212;2022-11-15T08:59:37;13.20;93.80
19258;DHT22;9763;48.780;9.212;2022-11-15T09:03:20;13.30;93.80
19258;DHT22;9763;48.780;9.212;2022-11-15T09:07:02;13.30;94.20
19258;DHT22;9763;48.780;9.212;2022-11-15T09:10:46;13.30;94.70
19258;DHT22;9763;48.780;9.212;2022-11-15T09:14:27;13.40;95.40
19258;DHT22;9763;48.780;9.212;2022-11-15T09:18:10;13.50;96.40
19258;DHT22;9763;48.780;9.212;2022-11-15T09:21:52;13.60;96.20
19258;DHT22;9763;48.780;9.212;2022-11-15T09:25:34;13.70;96.20
19258;DHT22;9763;48.780;9.212;2022-11-15T09:29:18;13.80;96.70
19258;DHT22;9763;48.780;9.212;2022-11-15T09:33:06;14.00;97.30
19258;DHT22;9763;48.780;9.212;2022-11-15T09:36:49;14.20;97.60
19258;DHT22;9763;48.780;9.212;2022-11-15T09:40:32;14.40;97.80
19258;DHT22;9763;48.780;9.212;2022-11-15T09:44:31;14.50;97.10
19258;DHT22;9763;48.780;9.212;2022-11-15T09:48:36;14.70;95.80
19258;DHT22;9763;48.780;9.212;2022-11-15T09:52:31;14.80;95.70
19258;DHT22;9763;48.780;9.212;2022-11-15T09:56:02;14.90;96.00
19258;DHT22;9763;48.780;9.212;2022-11-15T09:59:46;14.90;95.10
19258;DHT22;9763;48.780;9.212;2022-11-15T10:03:43;15.00;95.20
19258;DHT22;9763;48.780;9.212;2022-11-15T10:07:14;15.10;96.70
19258;DHT22;9763;48.780;9.212;2022-11-15T10:10:44;15.20;96.50
19258;DHT22;9763;48.780;9.212;2022-11-15T10:14:31;15.40;97.10
19258;DHT22;9763;48.780;9.212;2022-11-15T10:18:07;15.50;97.60
19258;DHT22;9763;48.780;9.212;2022-11-15T10:21:45;15.70;97.20
19258;DHT22;9763;48.780;9.212;2022-11-15T10:25:21;15.90;96.90
19258;DHT22;9763;48.780;9.212;2022-11-15T10:28:46;16.00;96.60
19258;DHT22;9763;48.780;9.212;2022-11-15T10:32:10;16.20;96.50
19258;DHT22;9763;48.780;9.212;2022-11-15T10:35:36;16.20;96.00
19258;DHT22;9763;48.780;9.212;2022-11-15T10:38:59;16.40;95.50
19258;DHT22;9763;48.780;9.212;2022-11-15T10:42:26;16.40;95.40
19258;DHT22;9763;48.780;9.212;2022-11-15T10:45:52;16.50;94.70
19258;DHT22;9763;48.780;9.212;2022-11-15T10:49:17;16.80;95.30
19258;DHT22;9763;48.780;9.212;2022-11-15T10:52:45;16.70;94.60
19258;DHT22;9763;48.780;9.212;2022-11-15T10:56:13;16.60;94.00
19258;DHT22;9763;48.780;9.212;2022-11-15T10:59:38;16.70;93.90
19258;DHT22;9763;48.780;9.212;2022-11-15T11:03:27;16.70;93.90
19258;DHT22;9763;48.780;9.212;2022-11-15T11:06:54;16.60;92.00
19258;DHT22;9763;48.780;9.212;2022-11-15T11:10:21;16.60;92.70
19258;DHT22;9763;48.780;9.212;2022-11-15T11:14:12;16.60;92.20
19258;DHT22;9763;48.780;9.212;2022-11-15T11:17:52;16.60;91.80
19258;DHT22;9763;48.780;9.212;2022-11-15T11:21:26;16.50;91.50
19258;DHT22;9763;48.780;9.212;2022-11-15T11:25:15;16.50;91.70
19258;DHT22;9763;48.780;9.212;2022-11-15T11:28:54;16.40;91.40
19258;DHT22;9763;48.780;9.212;2022-11-15T11:32:37;16.40;91.90
19258;DHT22;9763;48.780;9.212;2022-11-15T11:36:21;16.40;92.20
19258;DHT22;9763;48.780;9.212;2022-11-15T11:40:01;16.40;93.00
19258;DHT22;9763;48.780;9.212;2022-11-15T11:43:47;16.50;93.20
19258;DHT22;9763;48.780;9.212;2022-11-15T11:47:23;16.60;93.60
19258;DHT22;9763;48.780;9.212;2022-11-15T11:50:48;16.70;93.90
19258;DHT22;9763;48.780;9.212;2022-11-15T11:54:14;16.70;94.30
19258;DHT22;9763;48.780;9.212;2022-11-15T11:57:47;16.80;94.00
19258;DHT22;9763;48.780;9.212;2022-11-15T12:01:23;16.90;93.80
19258;DHT22;9763;48.780;9.212;2022-11-15T12:04:51;16.90;93.10
19258;DHT22;9763;48.780;9.212;2022-11-15T12:08:30;16.90;93.10
19258;DHT22;9763;48.780;9.212;2022-11-15T12:12:05;16.90;92.50
19258;DHT22;9763;48.780;9.212;2022-11-15T12:15:39;16.90;92.70
19258;DHT22;9763;48.780;9.212;2022-11-15T12:19:08;17.00;93.60
19258;DHT22;9763;48.780;9.212;2022-11-15T12:22:38;17.00;94.20
19258;DHT22;9763;48.780;9.212;2022-11-15T12:26:09;17.10;93.80
19258;DHT22;9763;48.780;9.212;2022-11-15T12:29:42;17.10;93.40
19258;DHT22;9763;48.780;9.212;2022-11-15T12:33:31;17.10;93.00
19258;DHT22;9763;48.780;9.212;2022-11-15T12:36:59;17.10;91.40
19258;DHT22;9763;48.780;9.212;2022-11-15T12:40:31;17.10;92.30
19258;DHT22;9763;48.780;9.212;2022-11-15T12:43:57;17.10;91.70
19258;DHT22;9763;48.780;9.212;2022-11-15T12:47:26;17.10;92.20
19258;DHT22;9763;48.780;9.212;2022-11-15T12:50:54;17.00;91.70
19258;DHT22;9763;48.780;9.212;2022-11-15T12:58:49;16.90;91.00
19258;DHT22;9763;48.780;9.212;2022-11-15T13:02:18;16.90;91.60
19258;DHT22;9763;48.780;9.212;2022-11-15T13:09:59;16.80;91.10
19258;DHT22;9763;48.780;9.212;2022-11-15T13:13:42;16.80;91.90
19258;DHT22;9763;48.780;9.212;2022-11-15T13:17:23;16.70;90.70
19258;DHT22;9763;48.780;9.212;2022-11-15T13:20:51;16.70;91.00
19258;DHT22;9763;48.780;9.212;2022-11-15T13:24:23;16.70;91.80
19258;DHT22;9763;48.780;9.212;2022-11-15T13:27:47;16.60;91.80
19258;DHT22;9763;48.780;9.212;2022-11-15T13:31:25;16.60;91.90
19258;DHT22;9763;48.780;9.212;2022-11-15T13:34:53;16.60;91.30
19258;DHT22;9763;48.780;9.212;2022-11-15T13:38:24;16.60;92.10
19258;DHT22;9763;48.780;9.212;2022-11-15T13:41:51;16.60;92.00
19258;DHT22;9763;48.780;9.212;2022-11-15T13:45:17;16.60;92.20
19258;DHT22;9763;48.780;9.212;2022-11-15T13:48:43;16.60;91.90
19258;DHT22;9763;48.780;9.212;2022-11-15T13:52:12;16.60;91.80
19258;DHT22;9763;48.780;9.212;2022-11-15T13:55:38;16.50;91.40
19258;DHT22;9763;48.780;9.212;2022-11-15T13:59:09;16.50;91.70
19258;DHT22;9763;48.780;9.212;2022-11-15T14:02:35;16.40;91.10
19258;DHT22;9763;48.780;9.212;2022-11-15T14:06:05;16.40;91.10
19258;DHT22;9763;48.780;9.212;2022-11-15T14:09:36;16.40;91.20
19258;DHT22;9763;48.780;9.212;2022-11-15T14:13:01;16.30;91.10
19258;DHT22;9763;48.780;9.212;2022-11-15T14:16:34;16.20;91.30
19258;DHT22;9763;48.780;9.212;2022-11-15T14:19:59;16.20;90.70
19258;DHT22;9763;48.780;9.212;2022-11-15T14:23:25;16.10;91.10
19258;DHT22;9763;48.780;9.212;2022-11-15T14:26:51;16.00;90.90
19258;DHT22;9763;48.780;9.212;2022-11-15T14:30:16;15.90;90.90
19258;DHT22;9763;48.780;9.212;2022-11-15T14:33:41;15.90;91.10
19258;DHT22;9763;48.780;9.212;2022-11-15T14:37:04;15.80;91.10
19258;DHT22;9763;48.780;9.212;2022-11-15T14:40:28;15.70;91.30
19258;DHT22;9763;48.780;9.212;2022-11-15T14:43:53;15.70;91.50
19258;DHT22;9763;48.780;9.212;2022-11-15T14:47:17;15.60;91.30
19258;DHT22;9763;48.780;9.212;2022-11-15T14:50:41;15.60;91.90
19258;DHT22;9763;48.780;9.212;2022-11-15T14:54:09;15.60;91.60
19258;DHT22;9763;48.780;9.212;2022-11-15T14:57:33;15.50;91.40
19258;DHT22;9763;48.780;9.212;2022-11-15T15:00:58;15.50;91.60
19258;DHT22;9763;48.780;9.212;2022-11-15T15:04:22;15.50;91.50
19258;DHT22;9763;48.780;9.212;2022-11-15T15:07:46;15.50;91.80
19258;DHT22;9763;48.780;9.212;2022-11-15T15:11:14;15.40;91.80
19258;DHT22;9763;48.780;9.212;2022-11-15T15:14:40;15.40;91.60
19258;DHT22;9763;48.780;9.212;2022-11-15T15:18:05;15.40;91.90
19258;DHT22;9763;48.780;9.212;2022-11-15T15:21:30;15.40;91.70
19258;DHT22;9763;48.780;9.212;2022-11-15T15:24:58;15.40;91.90
19258;DHT22;9763;48.780;9.212;2022-11-15T15:28:22;15.40;91.80
19258;DHT22;9763;48.780;9.212;2022-11-15T15:31:51;15.40;91.90
19258;DHT22;9763;48.780;9.212;2022-11-15T15:35:16;15.40;91.70
19258;DHT22;9763;48.780;9.212;2022-11-15T15:38:41;15.40;92.00
19258;DHT22;9763;48.780;9.212;2022-11-15T15:42:04;15.40;92.40
19258;DHT22;9763;48.780;9.212;2022-11-15T15:45:28;15.40;92.20
19258;DHT22;9763;48.780;9.212;2022-11-15T15:48:52;15.40;92.10
19258;DHT22;9763;48.780;9.212;2022-11-15T15:52:17;15.40;91.70
19258;DHT22;9763;48.780;9.212;2022-11-15T15:55:41;15.40;91.60
19258;DHT22;9763;48.780;9.212;2022-11-15T15:59:05;15.40;92.20
19258;DHT22;9763;48.780;9.212;2022-11-15T16:02:28;15.40;92.10
19258;DHT22;9763;48.780;9.212;2022-11-15T16:05:57;15.40;91.90
19258;DHT22;9763;48.780;9.212;2022-11-15T16:09:22;15.40;91.80
19258;DHT22;9763;48.780;9.212;2022-11-15T16:13:07;15.40;91.80
19258;DHT22;9763;48.780;9.212;2022-11-15T16:16:30;15.40;92.00
19258;DHT22;9763;48.780;9.212;2022-11-15T16:19:54;15.40;91.90
19258;DHT22;9763;48.780;9.212;2022-11-15T16:23:18;15.40;91.90
19258;DHT22;9763;48.780;9.212;2022-11-15T16:26:47;15.40;91.90
19258;DHT22;9763;48.780;9.212;2022-11-15T16:30:15;15.40;91.70
19258;DHT22;9763;48.780;9.212;2022-11-15T16:33:40;15.40;91.80
19258;DHT22;9763;48.780;9.212;2022-11-15T16:37:04;15.40;92.00
19258;DHT22;9763;48.780;9.212;2022-11-15T16:40:29;15.40;92.20
19258;DHT22;9763;48.780;9.212;2022-11-15T16:43:55;15.40;91.70
19258;DHT22;9763;48.780;9.212;2022-11-15T16:47:19;15.50;91.60
19258;DHT22;9763;48.780;9.212;2022-11-15T16:50:43;15.50;92.10
19258;DHT22;9763;48.780;9.212;2022-11-15T16:54:07;15.50;92.20
19258;DHT22;9763;48.780;9.212;2022-11-15T16:57:31;15.50;91.90
19258;DHT22;9763;48.780;9.212;2022-11-15T17:00:56;15.50;91.60
19258;DHT22;9763;48.780;9.212;2022-11-15T17:04:19;15.50;91.50
19258;DHT22;9763;48.780;9.212;2022-11-15T17:07:46;15.60;91.60
19258;DHT22;9763;48.780;9.212;2022-11-15T17:11:14;15.50;91.60
19258;DHT22;9763;48.780;9.212;2022-11-15T17:14:39;15.40;91.40
19258;DHT22;9763;48.780;9.212;2022-11-15T17:18:05;15.60;91.70
19258;DHT22;9763;48.780;9.212;2022-11-15T17:21:28;15.60;91.40
19258;DHT22;9763;48.780;9.212;2022-11-15T17:24:55;15.60;91.80
19258;DHT22;9763;48.780;9.212;2022-11-15T17:28:18;15.50;91.70
19258;DHT22;9763;48.780;9.212;2022-11-15T17:31:45;15.60;91.70
19258;DHT22;9763;48.780;9.212;2022-11-15T17:35:10;15.60;91.80
19258;DHT22;9763;48.780;9.212;2022-11-15T17:38:39;15.60;91.50
19258;DHT22;9763;48.780;9.212;2022-11-15T17:42:05;15.50;91.70
19258;DHT22;9763;48.780;9.212;2022-11-15T17:45:34;15.60;91.40
19258;DHT22;9763;48.780;9.212;2022-11-15T17:49:02;15.60;91.60
19258;DHT22;9763;48.780;9.212;2022-11-15T17:52:28;15.60;91.60
19258;DHT22;9763;48.780;9.212;2022-11-15T17:55:51;15.60;91.50
19258;DHT22;9763;48.780;9.212;2022-11-15T17:59:15;15.50;91.60
19258;DHT22;9763;48.780;9.212;2022-11-15T18:02:42;15.60;91.70
19258;DHT22;9763;48.780;9.212;2022-11-15T18:06:07;15.60;91.80
19258;DHT22;9763;48.780;9.212;2022-11-15T18:09:33;15.60;91.70
19258;DHT22;9763;48.780;9.212;2022-11-15T18:12:56;15.60;91.80
19258;DHT22;9763;48.780;9.212;2022-11-15T18:16:21;15.60;92.10
19258;DHT22;9763;48.780;9.212;2022-11-15T18:19:47;15.60;92.00
19258;DHT22;9763;48.780;9.212;2022-11-15T18:23:10;15.60;92.10
19258;DHT22;9763;48.780;9.212;2022-11-15T18:26:35;15.50;92.00
19258;DHT22;9763;48.780;9.212;2022-11-15T18:29:58;15.50;91.80
19258;DHT22;9763;48.780;9.212;2022-11-15T18:33:22;15.60;92.00
19258;DHT22;9763;48.780;9.212;2022-11-15T18:36:48;15.60;91.90
19258;DHT22;9763;48.780;9.212;2022-11-15T18:40:13;15.60;91.50
19258;DHT22;9763;48.780;9.212;2022-11-15T18:43:39;15.60;91.80
19258;DHT22;9763;48.780;9.212;2022-11-15T18:47:03;15.50;91.20
19258;DHT22;9763;48.780;9.212;2022-11-15T18:50:26;15.50;91.50
19258;DHT22;9763;48.780;9.212;2022-11-15T18:53:51;15.50;91.30
19258;DHT22;9763;48.780;9.212;2022-11-15T18:57:15;15.40;91.10
19258;DHT22;9763;48.780;9.212;2022-11-15T19:00:40;15.40;91.30
19258;DHT22;9763;48.780;9.212;2022-11-15T19:04:05;15.40;91.10
19258;DHT22;9763;48.780;9.212;2022-11-15T19:07:31;15.40;91.20
19258;DHT22;9763;48.780;9.212;2022-11-15T19:10:55;15.40;91.20
19258;DHT22;9763;48.780;9.212;2022-11-15T19:14:18;15.30;91.30
19258;DHT22;9763;48.780;9.212;2022-11-15T19:17:46;15.30;91.20
19258;DHT22;9763;48.780;9.212;2022-11-15T19:21:11;15.30;91.10
19258;DHT22;9763;48.780;9.212;2022-11-15T19:24:37;15.20;91.00
19258;DHT22;9763;48.780;9.212;2022-11-15T19:28:00;15.20;91.00
19258;DHT22;9763;48.780;9.212;2022-11-15T19:31:25;15.10;91.00
19258;DHT22;9763;48.780;9.212;2022-11-15T19:34:50;15.10;91.00
19258;DHT22;9763;48.780;9.212;2022-11-15T19:38:14;15.00;90.90
19258;DHT22;9763;48.780;9.212;2022-11-15T19:41:38;15.00;91.10
19258;DHT22;9763;48.780;9.212;2022-11-15T19:45:03;15.00;91.00
19258;DHT22;9763;48.780;9.212;2022-11-15T19:48:28;14.90;91.10
19258;DHT22;9763;48.780;9.212;2022-11-15T19:51:54;14.90;91.20
19258;DHT22;9763;48.780;9.212;2022-11-15T19:55:17;14.90;91.20
19258;DHT22;9763;48.780;9.212;2022-11-15T19:58:41;14.80;91.40
19258;DHT22;9763;48.780;9.212;2022-11-15T20:02:07;14.80;91.30
19258;DHT22;9763;48.780;9.212;2022-11-15T20:05:32;14.80;91.40
19258;DHT22;9763;48.780;9.212;2022-11-15T20:08:57;14.80;91.30
19258;DHT22;9763;48.780;9.212;2022-11-15T20:12:21;14.70;91.00
19258;DHT22;9763;48.780;9.212;2022-11-15T20:15:44;14.70;91.20
19258;DHT22;9763;48.780;9.212;2022-11-15T20:19:08;14.60;91.30
19258;DHT22;9763;48.780;9.212;2022-11-15T20:22:33;14.60;91.40
19258;DHT22;9763;48.780;9.212;2022-11-15T20:25:58;14.60;91.50
19258;DHT22;9763;48.780;9.212;2022-11-15T20:29:21;14.60;91.40
19258;DHT22;9763;48.780;9.212;2022-11-15T20:32:45;14.60;91.50
19258;DHT22;9763;48.780;9.212;2022-11-15T20:36:10;14.60;91.50
19258;DHT22;9763;48.780;9.212;2022-11-15T20:39:35;14.50;91.30
19258;DHT22;9763;48.780;9.212;2022-11-15T20:43:00;14.50;91.30
19258;DHT22;9763;48.780;9.212;2022-11-15T20:46:24;14.50;91.30
19258;DHT22;9763;48.780;9.212;2022-11-15T20:49:47;14.50;91.50
19258;DHT22;9763;48.780;9.212;2022-11-15T20:53:13;14.40;91.60
19258;DHT22;9763;48.780;9.212;2022-11-15T20:56:37;14.40;91.60
19258;DHT22;9763;48.780;9.212;2022-11-15T21:00:03;14.40;91.80
19258;DHT22;9763;48.780;9.212;2022-11-15T21:03:27;14.40;91.70
19258;DHT22;9763;48.780;9.212;2022-11-15T21:06:51;14.40;91.80
19258;DHT22;9763;48.780;9.212;2022-11-15T21:10:14;14.40;91.90
19258;DHT22;9763;48.780;9.212;2022-11-15T21:13:55;14.40;91.90
19258;DHT22;9763;48.780;9.212;2022-11-15T21:17:20;14.50;91.90
19258;DHT22;9763;48.780;9.212;2022-11-15T21:20:44;14.40;91.80
19258;DHT22;9763;48.780;9.212;2022-11-15T21:24:09;14.50;91.90
19258;DHT22;9763;48.780;9.212;2022-11-15T21:27:32;14.50;91.90
19258;DHT22;9763;48.780;9.212;2022-11-15T21:30:58;14.50;91.90
19258;DHT22;9763;48.780;9.212;2022-11-15T21:34:23;14.50;91.70
19258;DHT22;9763;48.780;9.212;2022-11-15T21:37:47;14.40;91.60
19258;DHT22;9763;48.780;9.212;2022-11-15T21:41:17;14.40;91.70
19258;DHT22;9763;48.780;9.212;2022-11-15T21:44:41;14.40;91.70
19258;DHT22;9763;48.780;9.212;2022-11-15T21:48:05;14.40;91.30
19258;DHT22;9763;48.780;9.212;2022-11-15T21:51:31;14.30;91.20
19258;DHT22;9763;48.780;9.212;2022-11-15T21:54:55;14.30;91.20
19258;DHT22;9763;48.780;9.212;2022-11-15T21:58:19;14.70;91.60
19258;DHT22;9763;48.780;9.212;2022-11-15T22:01:43;14.30;91.70
19258;DHT22;9763;48.780;9.212;2022-11-15T22:05:24;14.30;91.70
19258;DHT22;9763;48.780;9.212;2022-11-15T22:08:49;14.30;91.70
19258;DHT22;9763;48.780;9.212;2022-11-15T22:12:12;14.30;91.70
19258;DHT22;9763;48.780;9.212;2022-11-15T22:15:36;14.30;91.80
19258;DHT22;9763;48.780;9.212;2022-11-15T22:18:59;14.30;91.90
19258;DHT22;9763;48.780;9.212;2022-11-15T22:22:23;14.30;91.90
19258;DHT22;9763;48.780;9.212;2022-11-15T22:25:48;14.30;92.00
19258;DHT22;9763;48.780;9.212;2022-11-15T22:29:12;14.30;92.00
19258;DHT22;9763;48.780;9.212;2022-11-15T22:32:35;14.30;92.10
19258;DHT22;9763;48.780;9.212;2022-11-15T22:35:59;14.30;92.10
19258;DHT22;9763;48.780;9.212;2022-11-15T22:39:23;14.30;92.10
19258;DHT22;9763;48.780;9.212;2022-11-15T22:42:48;14.30;92.10
19258;DHT22;9763;48.780;9.212;2022-11-15T22:46:12;14.30;92.00
19258;DHT22;9763;48.780;9.212;2022-11-15T22:49:36;14.30;92.10
19258;DHT22;9763;48.780;9.212;2022-11-15T22:52:59;14.30;92.00
19258;DHT22;9763;48.780;9.212;2022-11-15T22:56:23;14.30;91.70
19258;DHT22;9763;48.780;9.212;2022-11-15T22:59:48;14.30;91.50
19258;DHT22;9763;48.780;9.212;2022-11-15T23:03:11;14.30;91.20
19258;DHT22;9763;48.780;9.212;2022-11-15T23:06:35;14.60;91.20